createdAt,value
2019-04-21T00:01:46.610Z,11.40
2019-04-21T00:04:28.782Z,11.57
2019-04-21T00:07:07.261Z,11.10
2019-04-21T00:09:37.740Z,11.53
2019-04-21T00:12:02.591Z,11.23
2019-04-21T00:14:22.133Z,12.17
2019-04-21T00:16:44.322Z,11.73
2019-04-21T00:19:21.069Z,11.93
2019-04-21T00:21:52.684Z,11.67
2019-04-21T00:24:28.862Z,12.67
2019-04-21T00:27:04.229Z,11.53
2019-04-21T00:29:38.543Z,11.60
2019-04-21T00:31:58.987Z,12.00
2019-04-21T00:34:13.370Z,11.90
2019-04-21T00:36:53.511Z,11.83
2019-04-21T00:39:36.339Z,12.67
2019-04-21T00:42:00.851Z,12.83
2019-04-21T00:44:22.448Z,12.70
2019-04-21T00:47:00.657Z,12.47
2019-04-21T00:49:27.032Z,12.57
2019-04-21T00:52:47.544Z,12.37
2019-04-21T00:57:38.877Z,13.27
2019-04-21T01:00:06.930Z,13.77
2019-04-21T01:02:48.543Z,13.30
2019-04-21T01:05:13.461Z,14.00
2019-04-21T01:07:37.114Z,12.53
2019-04-21T01:09:58.323Z,13.87
2019-04-21T01:12:37.478Z,13.43
2019-04-21T01:15:10.640Z,13.50
2019-04-21T01:17:38.304Z,14.17
2019-04-21T01:19:59.602Z,13.53
2019-04-21T01:22:11.990Z,12.60
2019-04-21T01:24:43.772Z,13.40
2019-04-21T01:27:21.661Z,14.07
2019-04-21T01:30:02.545Z,13.80
2019-04-21T01:32:29.619Z,13.40
2019-04-21T01:34:57.958Z,13.10
2019-04-21T01:37:35.751Z,13.93
2019-04-21T01:40:04.108Z,14.20
2019-04-21T01:42:25.610Z,13.60
2019-04-21T01:44:56.498Z,12.80
2019-04-21T01:47:22.711Z,14.03
2019-04-21T01:49:43.042Z,14.07
2019-04-21T01:52:31.643Z,13.93
2019-04-21T01:55:12.690Z,14.60
2019-04-21T01:58:00.410Z,14.43
2019-04-21T02:00:56.741Z,13.83
2019-04-21T02:03:50.174Z,13.37
2019-04-21T02:06:07.566Z,13.67
2019-04-21T02:08:28.807Z,14.13
2019-04-21T02:11:00.643Z,14.20
2019-04-21T02:13:23.567Z,13.90
2019-04-21T02:16:01.089Z,13.53
2019-04-21T02:18:27.621Z,13.50
2019-04-21T02:20:46.150Z,13.90
2019-04-21T02:23:34.632Z,14.03
2019-04-21T02:25:57.746Z,14.20
2019-04-21T02:28:30.897Z,14.20
2019-04-21T02:31:13.863Z,13.23
2019-04-21T02:33:38.864Z,14.13
2019-04-21T02:40:57.292Z,14.93
2019-04-21T02:43:24.957Z,13.53
2019-04-21T02:46:04.460Z,15.73
2019-04-21T02:50:53.373Z,15.10
2019-04-21T02:54:05.137Z,15.27
2019-04-21T02:56:01.085Z,14.90
2019-04-21T02:58:44.110Z,15.57
2019-04-21T03:04:26.236Z,15.80
2019-04-21T03:07:07.703Z,14.87
2019-04-21T03:09:39.429Z,15.27
2019-04-21T03:12:05.396Z,15.77
2019-04-21T03:14:40.978Z,14.53
2019-04-21T03:16:52.743Z,15.57
2019-04-21T03:19:33.068Z,15.10
2019-04-21T03:21:56.993Z,15.77
2019-04-21T03:24:17.504Z,15.87
2019-04-21T03:27:02.917Z,15.57
2019-04-21T03:29:30.971Z,16.20
2019-04-21T03:34:41.771Z,16.00
2019-04-21T03:39:20.269Z,15.97
2019-04-21T03:46:47.982Z,16.17
2019-04-21T03:49:32.499Z,16.93
2019-04-21T03:51:48.376Z,15.90
2019-04-21T03:54:16.191Z,15.93
2019-04-21T03:56:58.918Z,15.77
2019-04-21T03:59:11.157Z,16.57
2019-04-21T04:02:14.815Z,17.53
2019-04-21T04:05:14.849Z,16.03
2019-04-21T04:10:14.041Z,16.53
2019-04-21T04:15:23.765Z,17.00
2019-04-21T04:17:40.457Z,16.60
2019-04-21T04:20:20.496Z,16.57
2019-04-21T04:22:55.482Z,17.33
2019-04-21T04:25:20.981Z,17.53
2019-04-21T04:30:12.569Z,16.57
2019-04-21T04:35:12.590Z,17.53
2019-04-21T04:37:46.958Z,16.77
2019-04-21T04:43:11.824Z,17.10
2019-04-21T04:45:40.107Z,17.73
2019-04-21T04:50:55.496Z,17.60
2019-04-21T04:53:15.695Z,16.77
2019-04-21T04:55:41.043Z,17.23
2019-04-21T05:00:45.903Z,16.93
2019-04-21T05:03:01.004Z,18.30
2019-04-21T05:06:10.566Z,17.20
2019-04-21T05:11:35.822Z,17.97
2019-04-21T05:13:35.532Z,17.77
2019-04-21T05:16:22.033Z,17.87
2019-04-21T05:18:50.446Z,18.57
2019-04-21T05:21:16.045Z,17.60
2019-04-21T05:23:24.465Z,18.17
2019-04-21T05:25:50.795Z,17.47
2019-04-21T05:28:15.238Z,18.60
2019-04-21T05:31:19.876Z,17.83
2019-04-21T05:33:59.052Z,17.50
2019-04-21T05:36:57.444Z,18.07
2019-04-21T05:39:30.243Z,18.53
2019-04-21T05:41:50.869Z,17.70
2019-04-21T05:44:43.115Z,18.20
2019-04-21T05:47:14.235Z,18.30
2019-04-21T05:49:33.768Z,18.20
2019-04-21T05:52:05.472Z,17.30
2019-04-21T05:54:44.149Z,18.63
2019-04-21T05:57:05.927Z,18.37
2019-04-21T05:59:41.717Z,17.63
2019-04-21T06:02:15.264Z,17.67
2019-04-21T06:05:02.035Z,17.80
2019-04-21T06:07:13.247Z,18.40
2019-04-21T06:09:39.782Z,18.83
2019-04-21T06:12:02.970Z,18.77
2019-04-21T06:14:42.191Z,17.13
2019-04-21T06:17:08.128Z,17.80
2019-04-21T06:19:43.232Z,17.97
2019-04-21T06:22:03.612Z,17.87
2019-04-21T06:24:30.018Z,18.67
2019-04-21T06:27:22.712Z,17.97
2019-04-21T06:29:41.588Z,18.17
2019-04-21T06:32:26.725Z,18.47
2019-04-21T06:34:51.835Z,18.33
2019-04-21T06:37:39.784Z,18.83
2019-04-21T06:40:03.173Z,18.83
2019-04-21T06:42:13.606Z,18.00
2019-04-21T06:44:54.508Z,18.33
2019-04-21T06:47:24.656Z,18.90
2019-04-21T06:49:47.430Z,18.83
2019-04-21T06:52:33.374Z,18.33
2019-04-21T06:54:53.300Z,17.80
2019-04-21T06:57:16.938Z,18.60
2019-04-21T06:59:40.242Z,18.33
2019-04-21T07:04:46.571Z,18.53
2019-04-21T07:07:05.102Z,18.00
2019-04-21T07:09:35.704Z,17.47
2019-04-21T07:12:07.426Z,17.50
2019-04-21T07:14:53.334Z,17.50
2019-04-21T07:17:16.038Z,18.20
2019-04-21T07:19:41.229Z,19.07
2019-04-21T07:22:11.333Z,18.53
2019-04-21T07:24:37.316Z,17.40
2019-04-21T07:27:08.868Z,18.17
2019-04-21T07:29:45.304Z,18.43
2019-04-21T07:37:06.494Z,18.17
2019-04-21T07:39:35.577Z,18.97
2019-04-21T07:41:59.341Z,18.30
2019-04-21T07:44:29.088Z,17.97
2019-04-21T07:46:56.357Z,19.33
2019-04-21T07:49:58.687Z,19.07
2019-04-21T07:52:42.622Z,18.10
2019-04-21T07:55:23.614Z,17.97
2019-04-21T07:57:35.488Z,17.03
2019-04-21T08:02:37.334Z,17.87
2019-04-21T08:07:49.259Z,17.10
2019-04-21T08:10:03.434Z,16.83
2019-04-21T08:12:30.661Z,15.80
2019-04-21T08:15:13.953Z,16.40
2019-04-21T08:17:36.708Z,16.23
2019-04-21T08:19:59.144Z,16.70
2019-04-21T08:22:35.113Z,16.27
2019-04-21T08:25:02.843Z,15.80
2019-04-21T08:27:37.049Z,15.37
2019-04-21T08:30:01.660Z,16.25
2019-04-21T08:32:38.475Z,17.00
2019-04-21T08:35:22.778Z,16.00
2019-04-21T08:37:34.162Z,16.25
2019-04-21T08:40:17.660Z,16.10
2019-04-21T08:42:30.489Z,16.45
2019-04-21T08:45:03.945Z,15.80
2019-04-21T08:47:31.919Z,16.10
2019-04-21T08:49:55.877Z,15.45
2019-04-21T08:52:38.092Z,16.15
2019-04-21T08:55:03.336Z,15.35
2019-04-21T08:58:02.396Z,16.48
2019-04-21T09:00:29.593Z,16.45
2019-04-21T09:03:02.583Z,16.27
2019-04-21T09:05:29.822Z,15.28
2019-04-21T09:07:57.211Z,16.00
2019-04-21T09:10:31.148Z,15.35
2019-04-21T09:12:54.271Z,15.10
2019-04-21T09:15:25.206Z,15.55
2019-04-21T09:17:48.369Z,15.50
2019-04-21T09:20:25.141Z,16.02
2019-04-21T09:22:54.496Z,17.10
2019-04-21T09:25:26.892Z,15.03
2019-04-21T09:27:57.524Z,13.95
2019-04-21T09:30:06.897Z,13.65
2019-04-21T09:32:37.060Z,15.00
2019-04-21T09:35:10.288Z,13.30
2019-04-21T09:37:44.477Z,14.20
2019-04-21T09:40:04.935Z,13.95
2019-04-21T09:42:40.997Z,13.40
2019-04-21T09:45:05.872Z,13.18
2019-04-21T09:47:40.520Z,13.43
2019-04-21T09:50:03.540Z,13.43
2019-04-21T09:52:39.650Z,13.25
2019-04-21T09:55:06.946Z,12.13
2019-04-21T09:57:40.707Z,12.45
2019-04-21T10:00:06.797Z,13.15
2019-04-21T10:02:37.542Z,12.43
2019-04-21T10:04:59.393Z,12.98
2019-04-21T10:07:33.408Z,14.03
2019-04-21T10:09:56.673Z,14.65
2019-04-21T10:12:25.548Z,13.10
2019-04-21T10:14:53.248Z,13.20
2019-04-21T10:17:27.644Z,13.70
2019-04-21T10:20:14.949Z,12.07
2019-04-21T10:22:42.717Z,13.03
2019-04-21T10:25:12.477Z,13.78
2019-04-21T10:27:41.250Z,14.05
2019-04-21T10:30:09.983Z,13.08
2019-04-21T10:32:38.649Z,13.22
2019-04-21T10:35:08.232Z,13.13
2019-04-21T10:37:47.259Z,13.58
2019-04-21T10:40:05.867Z,13.32
2019-04-21T10:42:33.461Z,14.73
2019-04-21T10:45:01.165Z,14.23
2019-04-21T10:47:29.355Z,13.43
2019-04-21T10:49:58.271Z,12.98
2019-04-21T10:52:49.061Z,13.22
2019-04-21T10:55:36.553Z,13.68
2019-04-21T10:58:08.573Z,14.05
2019-04-21T11:00:37.236Z,13.43
2019-04-21T11:03:28.917Z,13.18
2019-04-21T11:05:56.786Z,12.70
2019-04-21T11:08:31.841Z,13.90
2019-04-21T11:10:54.056Z,13.48
2019-04-21T11:13:22.947Z,13.03
2019-04-21T11:15:50.920Z,13.25
2019-04-21T11:18:19.787Z,12.95
2019-04-21T11:20:48.871Z,13.40
2019-04-21T11:23:21.169Z,12.07
2019-04-21T11:25:48.186Z,12.82
2019-04-21T11:28:17.055Z,13.10
2019-04-21T11:30:44.688Z,13.20
2019-04-21T11:33:13.125Z,12.20
2019-04-21T11:35:41.351Z,11.65
2019-04-21T11:38:18.407Z,11.80
2019-04-21T11:40:45.534Z,11.45
2019-04-21T11:43:13.736Z,11.73
2019-04-21T11:45:42.622Z,11.25
2019-04-21T11:48:21.880Z,10.18
2019-04-21T11:50:51.288Z,10.60
2019-04-21T11:53:18.966Z,9.80
2019-04-21T11:55:48.873Z,9.85
2019-04-21T11:58:16.118Z,10.75
2019-04-21T12:00:45.403Z,11.28
2019-04-21T12:03:15.258Z,11.22
2019-04-21T12:05:43.502Z,10.95
2019-04-21T12:08:23.018Z,10.50
2019-04-21T12:10:41.750Z,11.35
2019-04-21T12:13:10.051Z,10.98
2019-04-21T12:15:38.835Z,10.53
2019-04-21T12:18:07.912Z,10.00
2019-04-21T12:20:35.713Z,10.60
2019-04-21T12:23:04.569Z,10.32
2019-04-21T12:25:37.143Z,10.53
2019-04-21T12:28:05.828Z,10.72
2019-04-21T12:30:33.594Z,9.75
2019-04-21T12:33:06.111Z,10.10
2019-04-21T12:35:35.320Z,9.83
2019-04-21T12:38:04.671Z,9.78
2019-04-21T12:40:32.638Z,9.95
2019-04-21T12:43:00.941Z,10.88
2019-04-21T12:45:28.801Z,10.75
2019-04-21T12:47:57.841Z,10.72
2019-04-21T12:50:25.914Z,11.15
2019-04-21T12:52:53.684Z,10.10
2019-04-21T12:55:23.959Z,9.20
2019-04-21T12:57:50.871Z,10.18
2019-04-21T13:00:20.769Z,10.08
2019-04-21T13:02:49.749Z,9.75
2019-04-21T13:05:17.818Z,9.60
2019-04-21T13:07:45.691Z,9.63
2019-04-21T13:10:13.747Z,11.03
2019-04-21T13:12:41.759Z,10.58
2019-04-21T13:15:10.856Z,11.30
2019-04-21T13:17:39.428Z,10.85
2019-04-21T13:20:07.418Z,10.68
2019-04-21T13:22:36.060Z,10.63
2019-04-21T13:25:05.512Z,11.18
2019-04-21T13:27:34.489Z,10.55
2019-04-21T13:30:02.368Z,9.75
2019-04-21T13:32:31.127Z,9.48
2019-04-21T13:34:59.111Z,10.05
2019-04-21T13:37:27.761Z,9.93
2019-04-21T13:40:51.781Z,9.88
2019-04-21T13:43:04.117Z,9.83
2019-04-21T13:45:32.109Z,10.18
2019-04-21T13:48:01.065Z,10.53
2019-04-21T13:50:29.084Z,10.60
2019-04-21T13:52:56.927Z,10.00
2019-04-21T13:55:25.529Z,10.00
2019-04-21T13:57:54.507Z,9.83
2019-04-21T14:00:24.158Z,10.15
2019-04-21T14:02:52.493Z,11.10
2019-04-21T14:05:20.398Z,10.82
2019-04-21T14:07:48.193Z,11.75
2019-04-21T14:10:16.062Z,10.60
2019-04-21T14:12:46.604Z,10.85
2019-04-21T14:15:14.697Z,9.90
2019-04-21T14:17:42.588Z,10.18
2019-04-21T14:20:10.930Z,10.63
2019-04-21T14:22:40.040Z,10.65
2019-04-21T14:25:08.053Z,10.88
2019-04-21T14:27:36.363Z,10.25
2019-04-21T14:30:08.267Z,10.28
2019-04-21T14:32:36.087Z,10.88
2019-04-21T14:35:04.883Z,11.20
2019-04-21T14:37:34.874Z,10.40
2019-04-21T14:40:07.443Z,11.20
2019-04-21T14:42:32.357Z,10.98
2019-04-21T14:45:00.848Z,10.55
2019-04-21T14:48:03.470Z,11.40
2019-04-21T14:50:55.883Z,11.00
2019-04-21T14:53:25.747Z,10.48
2019-04-21T14:55:53.387Z,9.30
2019-04-21T14:58:21.216Z,9.90
2019-04-21T15:00:55.705Z,9.83
2019-04-21T15:03:23.705Z,11.15
2019-04-21T15:05:51.543Z,10.98
2019-04-21T15:08:19.355Z,10.40
2019-04-21T15:10:47.211Z,9.53
2019-04-21T15:13:14.881Z,9.68
2019-04-21T15:15:43.615Z,9.65
2019-04-21T15:18:12.501Z,9.53
2019-04-21T15:20:40.507Z,9.28
2019-04-21T15:23:08.388Z,9.43
2019-04-21T15:25:36.280Z,9.50
2019-04-21T15:28:04.015Z,10.15
2019-04-21T15:30:32.445Z,10.95
2019-04-21T15:33:00.459Z,9.75
2019-04-21T15:35:29.002Z,10.13
2019-04-21T15:37:58.058Z,9.30
2019-04-21T15:40:38.659Z,10.25
2019-04-21T15:42:55.172Z,9.80
2019-04-21T15:48:04.201Z,10.13
2019-04-21T15:50:32.341Z,9.98
2019-04-21T15:53:03.561Z,9.45
2019-04-21T15:55:57.170Z,9.03
2019-04-21T15:58:56.795Z,9.50
2019-04-21T16:01:30.384Z,9.05
2019-04-21T16:04:00.214Z,10.45
2019-04-21T16:06:27.759Z,10.15
2019-04-21T16:08:57.473Z,10.30
2019-04-21T16:11:25.962Z,10.68
2019-04-21T16:13:53.667Z,9.53
2019-04-21T16:16:24.894Z,10.25
2019-04-21T16:18:52.168Z,10.23
2019-04-21T16:21:19.885Z,10.43
2019-04-21T16:23:48.626Z,10.53
2019-04-21T16:26:17.030Z,10.45
2019-04-21T16:28:44.946Z,9.80
2019-04-21T16:31:14.131Z,10.10
2019-04-21T16:33:43.175Z,10.00
2019-04-21T16:36:13.106Z,9.90
2019-04-21T16:38:41.793Z,9.73
2019-04-21T16:41:12.022Z,9.08
2019-04-21T16:43:38.981Z,9.73
2019-04-21T16:46:06.884Z,9.48
2019-04-21T16:48:35.747Z,9.55
2019-04-21T16:51:03.682Z,9.08
2019-04-21T16:53:42.012Z,9.58
2019-04-21T16:56:47.940Z,9.20
2019-04-21T16:59:34.747Z,9.50
2019-04-21T17:02:02.769Z,9.35
2019-04-21T17:04:30.705Z,10.20
2019-04-21T17:06:58.914Z,9.00
2019-04-21T17:09:26.737Z,9.30
2019-04-21T17:11:59.974Z,10.10
2019-04-21T17:14:37.495Z,8.93
2019-04-21T17:17:19.093Z,9.28
2019-04-21T17:19:29.832Z,9.13
2019-04-21T17:21:53.684Z,8.98
2019-04-21T17:24:22.182Z,9.25
2019-04-21T17:26:51.259Z,9.30
2019-04-21T17:29:19.027Z,8.90
2019-04-21T17:31:47.737Z,8.20
2019-04-21T17:34:21.817Z,8.85
2019-04-21T17:36:47.074Z,8.40
2019-04-21T17:39:16.398Z,9.30
2019-04-21T17:41:58.224Z,7.97
2019-04-21T17:44:15.010Z,8.28
2019-04-21T17:46:49.985Z,7.28
2019-04-21T17:49:12.795Z,7.87
2019-04-21T17:52:05.539Z,8.40
2019-04-21T17:54:40.898Z,7.33
2019-04-21T17:57:26.649Z,7.45
2019-04-21T18:02:28.254Z,7.12
2019-04-21T18:04:58.884Z,7.75
2019-04-21T18:07:27.663Z,7.42
2019-04-21T18:12:28.030Z,7.53
2019-04-21T18:14:53.112Z,7.30
2019-04-21T18:17:14.146Z,7.00
2019-04-21T18:19:46.988Z,7.20
2019-04-21T18:22:35.843Z,7.47
2019-04-21T18:25:07.049Z,7.05
2019-04-21T18:27:30.483Z,7.15
2019-04-21T18:30:02.538Z,7.33
2019-04-21T18:32:35.333Z,7.25
2019-04-21T18:35:15.974Z,7.30
2019-04-21T18:38:04.593Z,7.30
2019-04-21T18:40:30.795Z,7.08
2019-04-21T18:43:38.345Z,7.93
2019-04-21T18:46:11.518Z,7.27
2019-04-21T18:48:22.161Z,7.50
2019-04-21T18:50:55.366Z,8.20
2019-04-21T18:53:41.364Z,7.87
2019-04-21T18:55:59.421Z,8.33
2019-04-21T18:58:22.281Z,7.60
2019-04-21T19:00:51.549Z,8.80
2019-04-21T19:03:27.349Z,8.67
2019-04-21T19:05:55.232Z,8.20
2019-04-21T19:08:38.734Z,8.43
2019-04-21T19:11:09.535Z,8.00
2019-04-21T19:13:59.895Z,7.80
2019-04-21T19:16:33.115Z,8.30
2019-04-21T19:19:19.124Z,8.77
2019-04-21T19:21:20.378Z,8.07
2019-04-21T19:24:01.816Z,8.00
2019-04-21T19:28:53.836Z,8.00
2019-04-21T19:31:30.108Z,8.47
2019-04-21T19:33:46.944Z,8.23
2019-04-21T19:36:03.441Z,8.00
2019-04-21T19:38:45.712Z,8.30
2019-04-21T19:41:15.471Z,8.53
2019-04-21T19:43:47.063Z,8.27
2019-04-21T19:46:14.499Z,8.73
2019-04-21T19:48:54.105Z,8.70
2019-04-21T19:51:15.145Z,9.00
2019-04-21T19:53:41.795Z,8.73
2019-04-21T19:55:58.263Z,8.67
2019-04-21T19:58:33.070Z,9.40
2019-04-21T20:00:57.481Z,9.47
2019-04-21T20:03:26.204Z,9.07
2019-04-21T20:06:02.108Z,9.90
2019-04-21T20:08:39.690Z,10.40
2019-04-21T20:11:10.688Z,9.07
2019-04-21T20:13:58.530Z,8.90
2019-04-21T20:16:15.126Z,9.60
2019-04-21T20:18:30.437Z,10.13
2019-04-21T20:20:50.392Z,9.90
2019-04-21T20:23:22.894Z,10.63
2019-04-21T20:25:53.141Z,10.47
2019-04-21T20:28:31.982Z,10.80
2019-04-21T20:31:06.774Z,11.13
2019-04-21T20:33:46.898Z,11.43
2019-04-21T20:36:01.387Z,11.40
2019-04-21T20:38:24.781Z,11.40
2019-04-21T20:40:52.398Z,11.57
2019-04-21T20:43:33.652Z,11.70
2019-04-21T20:46:05.627Z,11.23
2019-04-21T20:48:26.167Z,11.47
2019-04-21T20:51:03.555Z,12.03
2019-04-21T20:53:27.477Z,12.00
2019-04-21T20:55:54.294Z,13.00
2019-04-21T20:58:28.084Z,13.40
2019-04-21T21:01:06.078Z,13.77
2019-04-21T21:03:24.648Z,14.27
2019-04-21T21:05:49.718Z,14.27
2019-04-21T21:08:31.233Z,14.30
2019-04-21T21:10:52.755Z,14.87
2019-04-21T21:13:26.395Z,15.07
2019-04-21T21:16:06.152Z,16.00
2019-04-21T21:18:43.532Z,15.47
2019-04-21T21:20:54.115Z,15.37
2019-04-21T21:23:12.651Z,14.43
2019-04-21T21:25:50.487Z,15.80
2019-04-21T21:28:10.214Z,15.27
2019-04-21T21:30:43.115Z,15.77
2019-04-21T21:33:17.442Z,15.43
2019-04-21T21:35:41.155Z,16.00
2019-04-21T21:38:20.945Z,15.90
2019-04-21T21:40:45.548Z,15.83
2019-04-21T21:43:01.535Z,15.90
2019-04-21T21:45:30.785Z,15.73
2019-04-21T21:48:15.668Z,16.93
2019-04-21T21:50:39.884Z,15.67
2019-04-21T21:53:03.301Z,16.60
2019-04-21T21:55:25.914Z,15.57
2019-04-21T21:58:01.067Z,17.23
2019-04-21T22:00:25.995Z,16.60
2019-04-21T22:02:56.883Z,17.03
2019-04-21T22:05:26.072Z,16.20
2019-04-21T22:07:54.211Z,16.87
2019-04-21T22:10:23.131Z,17.70
2019-04-21T22:13:00.352Z,17.33
2019-04-21T22:15:24.882Z,17.70
2019-04-21T22:18:12.104Z,17.33
2019-04-21T22:20:40.155Z,17.87
2019-04-21T22:22:56.244Z,18.63
2019-04-21T22:25:25.466Z,18.07
2019-04-21T22:27:48.788Z,18.90
2019-04-21T22:30:26.111Z,18.07
2019-04-21T22:32:55.490Z,18.87
2019-04-21T22:35:28.485Z,18.50
2019-04-21T22:38:01.890Z,18.73
2019-04-21T22:40:30.024Z,18.40
2019-04-21T22:42:59.373Z,19.50
2019-04-21T22:45:17.755Z,18.50
2019-04-21T22:47:47.897Z,18.53
2019-04-21T22:50:26.786Z,19.20
2019-04-21T22:53:01.598Z,18.97
2019-04-21T22:55:27.428Z,18.83
2019-04-21T22:57:57.909Z,18.70
2019-04-21T23:00:24.007Z,17.97
2019-04-21T23:02:54.895Z,18.60
2019-04-21T23:05:28.271Z,18.40
2019-04-21T23:07:58.152Z,19.83
2019-04-21T23:10:21.159Z,19.47
2019-04-21T23:12:50.238Z,20.17
2019-04-21T23:15:22.410Z,19.80
2019-04-21T23:18:06.894Z,20.90
2019-04-21T23:20:39.606Z,20.20
2019-04-21T23:23:12.130Z,19.23
2019-04-21T23:25:36.656Z,19.90
2019-04-21T23:28:09.104Z,20.23
2019-04-21T23:30:47.460Z,20.13
2019-04-21T23:32:57.041Z,19.93
2019-04-21T23:35:25.779Z,20.63
2019-04-21T23:37:52.947Z,20.23
2019-04-21T23:40:19.886Z,20.83
2019-04-21T23:42:47.124Z,20.50
2019-04-21T23:45:19.570Z,20.30
2019-04-21T23:47:57.796Z,20.47
2019-04-21T23:50:25.359Z,20.83
2019-04-21T23:52:43.708Z,21.67
2019-04-21T23:55:11.641Z,20.70
2019-04-21T23:57:43.268Z,20.73
